Main page
METAR-TAF:

METAR-TAF

Airports :

Maragheh, Iran

latitude: 37-20-55N, longitude: 046-07-35E, elevation: 1340 m

Current weather observation

The report was made 2 hours and 29 minutes ago, at 18:00 UTC
Wind 10 kt from the East/Northeast
Temperature 17°C
Humidity 32%
Pressure 1018 hPa
Visibility 10 km or more
Few clouds at a height of 4000 ft

METAR: OITM 301800Z 07010KT 9999 FEW040 17/00 Q1018

Time: 00:59 (20:29 UTC)


TAF: missing

Weather observations and forecasts of more than 4000 airports (METAR and TAF reports).

The available stations are represented by yellow and red dots on the map.

Hover mouse over dot to see the name of the station.

Then click to see weather observations and forecasts.

To change the map : click on the green buttons with a black cross to zoom in, on the green button with a dash to zoom out, or on the green arrows for adjacent maps.


METAR-TAF: